createdAt,value
2023-02-11T00:01:39.870Z,23.43
2023-02-11T00:04:08.934Z,23.37
2023-02-11T00:06:37.802Z,27.07
2023-02-11T00:09:07.131Z,29.03
2023-02-11T00:11:36.058Z,27.87
2023-02-11T00:14:08.032Z,28.87
2023-02-11T00:16:38.238Z,29.40
2023-02-11T00:19:07.407Z,29.67
2023-02-11T00:21:36.319Z,30.17
2023-02-11T00:24:05.559Z,25.40
2023-02-11T00:26:36.726Z,28.53
2023-02-11T00:29:06.391Z,31.00
2023-02-11T00:31:35.857Z,25.70
2023-02-11T00:34:08.752Z,30.60
2023-02-11T00:36:37.932Z,33.90
2023-02-11T00:39:08.219Z,31.70
2023-02-11T00:41:37.619Z,36.57
2023-02-11T00:44:06.563Z,32.47
2023-02-11T00:46:35.323Z,33.90
2023-02-11T00:49:04.106Z,31.37
2023-02-11T00:51:34.110Z,29.37
2023-02-11T00:54:05.212Z,27.30
2023-02-11T00:56:34.108Z,28.60
2023-02-11T00:59:02.762Z,27.90
2023-02-11T01:01:31.638Z,29.87
2023-02-11T01:04:00.321Z,29.10
2023-02-11T01:06:28.910Z,31.43
2023-02-11T01:08:58.959Z,27.83
2023-02-11T01:11:27.596Z,23.90
2023-02-11T01:13:56.247Z,23.50
2023-02-11T01:16:24.914Z,24.77
2023-02-11T01:18:55.260Z,25.17
2023-02-11T01:21:23.978Z,20.87
2023-02-11T01:23:53.347Z,24.37
2023-02-11T01:26:23.477Z,21.93
2023-02-11T01:28:52.238Z,22.17
2023-02-11T01:31:21.458Z,23.57
2023-02-11T01:33:50.282Z,24.77
2023-02-11T01:36:19.034Z,23.37
2023-02-11T01:38:47.676Z,24.40
2023-02-11T01:41:16.517Z,26.20
2023-02-11T01:43:49.798Z,23.27
2023-02-11T01:46:35.386Z,26.90
2023-02-11T01:49:09.531Z,25.13
2023-02-11T01:51:41.766Z,24.53
2023-02-11T01:54:30.630Z,26.47
2023-02-11T01:57:19.015Z,26.87
2023-02-11T01:59:57.500Z,27.57
2023-02-11T02:02:34.107Z,24.93
2023-02-11T02:05:11.125Z,24.17
2023-02-11T02:07:47.542Z,24.63
2023-02-11T02:10:20.809Z,28.47
2023-02-11T02:12:49.600Z,26.70
2023-02-11T02:15:26.708Z,27.43
2023-02-11T02:18:16.765Z,28.33
2023-02-11T02:21:31.604Z,25.40
2023-02-11T02:24:33.297Z,27.40
2023-02-11T02:27:35.339Z,30.27
2023-02-11T02:30:40.597Z,27.17
2023-02-11T02:33:39.911Z,28.30
2023-02-11T02:36:16.282Z,25.33
2023-02-11T02:38:54.249Z,28.67
2023-02-11T02:41:26.404Z,26.50
2023-02-11T02:43:55.768Z,26.23
2023-02-11T02:46:28.560Z,23.17
2023-02-11T02:48:59.587Z,21.37
2023-02-11T02:52:01.326Z,22.17
2023-02-11T02:54:56.846Z,18.63
2023-02-11T02:57:40.394Z,18.50
2023-02-11T03:00:33.277Z,20.13
2023-02-11T03:03:18.949Z,18.00
2023-02-11T03:05:58.176Z,18.67
2023-02-11T03:08:33.569Z,18.00
2023-02-11T03:11:03.076Z,19.33
2023-02-11T03:13:35.808Z,20.37
2023-02-11T03:16:10.552Z,19.97
2023-02-11T03:18:42.410Z,24.73
2023-02-11T03:21:14.095Z,25.90
2023-02-11T03:23:48.610Z,24.23
2023-02-11T03:26:25.714Z,22.30
2023-02-11T03:29:00.872Z,21.93
2023-02-11T03:31:35.731Z,28.50
2023-02-11T03:34:09.879Z,23.50
2023-02-11T03:36:47.290Z,18.27
2023-02-11T03:39:22.494Z,18.20
2023-02-11T03:41:52.769Z,18.73
2023-02-11T03:44:24.500Z,16.93
2023-02-11T03:46:55.430Z,17.13
2023-02-11T03:49:26.491Z,17.50
2023-02-11T03:51:58.083Z,17.30
2023-02-11T03:54:31.966Z,16.17
2023-02-11T03:57:02.773Z,15.67
2023-02-11T03:59:31.559Z,16.53
2023-02-11T04:02:00.398Z,17.00
2023-02-11T04:04:29.193Z,17.83
2023-02-11T04:06:59.183Z,16.70
2023-02-11T04:09:27.811Z,17.30
2023-02-11T04:11:56.446Z,18.20
2023-02-11T04:14:25.159Z,17.23
2023-02-11T04:16:53.740Z,17.20
2023-02-11T04:19:22.423Z,17.50
2023-02-11T04:21:50.990Z,16.77
2023-02-11T04:24:21.011Z,17.00
2023-02-11T04:26:49.695Z,17.80
2023-02-11T04:29:19.052Z,15.60
2023-02-11T04:31:47.974Z,16.47
2023-02-11T04:34:17.455Z,17.23
2023-02-11T04:36:46.092Z,20.00
2023-02-11T04:39:14.843Z,18.00
2023-02-11T04:41:44.851Z,16.67
2023-02-11T04:44:13.580Z,17.83
2023-02-11T04:46:42.374Z,17.13
2023-02-11T04:49:14.190Z,18.50
2023-02-11T04:51:43.202Z,16.20
2023-02-11T04:54:12.503Z,16.73
2023-02-11T04:56:41.426Z,15.40
2023-02-11T04:59:11.861Z,15.63
2023-02-11T05:01:40.854Z,15.93
2023-02-11T05:04:09.586Z,16.63
2023-02-11T05:06:40.484Z,14.83
2023-02-11T05:09:09.310Z,15.53
2023-02-11T05:11:39.435Z,16.03
2023-02-11T05:14:10.045Z,12.83
2023-02-11T05:16:38.681Z,17.17
2023-02-11T05:19:07.395Z,15.17
2023-02-11T05:21:36.096Z,16.57
2023-02-11T05:24:05.445Z,14.77
2023-02-11T05:26:34.204Z,14.60
2023-02-11T05:29:02.895Z,14.57
2023-02-11T05:31:33.371Z,13.73
2023-02-11T05:34:03.969Z,12.17
2023-02-11T05:36:33.566Z,12.27
2023-02-11T05:39:02.369Z,12.80
2023-02-11T05:41:31.269Z,11.37
2023-02-11T05:43:59.866Z,14.33
2023-02-11T05:46:28.610Z,13.33
2023-02-11T05:48:58.618Z,14.00
2023-02-11T05:51:27.294Z,14.83
2023-02-11T05:53:55.947Z,13.67
2023-02-11T05:56:24.609Z,15.07
2023-02-11T05:58:53.186Z,14.37
2023-02-11T06:01:21.821Z,13.03
2023-02-11T06:03:51.465Z,14.20
2023-02-11T06:06:21.575Z,15.53
2023-02-11T06:08:50.200Z,14.10
2023-02-11T06:11:20.312Z,15.03
2023-02-11T06:13:49.039Z,16.67
2023-02-11T06:16:17.740Z,15.10
2023-02-11T06:18:46.366Z,17.17
2023-02-11T06:21:15.031Z,13.67
2023-02-11T06:23:45.136Z,11.80
2023-02-11T06:26:20.427Z,15.73
2023-02-11T06:28:49.461Z,13.20
2023-02-11T06:31:18.918Z,12.63
2023-02-11T06:33:47.606Z,14.13
2023-02-11T06:36:19.754Z,12.10
2023-02-11T06:38:50.735Z,13.47
2023-02-11T06:41:21.221Z,13.27
2023-02-11T06:43:50.403Z,13.57
2023-02-11T06:46:19.014Z,16.77
2023-02-11T06:48:47.824Z,16.50
2023-02-11T06:51:17.147Z,16.77
2023-02-11T06:53:49.195Z,16.10
2023-02-11T06:56:23.992Z,14.80
2023-02-11T06:58:55.740Z,15.20
2023-02-11T07:01:26.171Z,12.80
2023-02-11T07:03:55.271Z,17.43
2023-02-11T07:06:28.181Z,15.03
2023-02-11T07:08:58.439Z,16.90
2023-02-11T07:11:29.712Z,18.67
2023-02-11T07:14:03.352Z,18.37
2023-02-11T07:16:33.125Z,18.63
2023-02-11T07:19:01.859Z,19.10
2023-02-11T07:21:30.532Z,17.80
2023-02-11T07:24:00.592Z,17.13
2023-02-11T07:26:29.277Z,20.83
2023-02-11T07:28:57.929Z,17.07
2023-02-11T07:31:29.724Z,17.47
2023-02-11T07:34:00.916Z,35.47
2023-02-11T07:36:31.985Z,29.07
2023-02-11T07:39:02.330Z,21.93
2023-02-11T07:41:30.986Z,20.63
2023-02-11T07:43:59.734Z,19.83
2023-02-11T07:46:29.460Z,21.47
2023-02-11T07:48:58.228Z,22.80
2023-02-11T07:51:29.622Z,18.63
2023-02-11T07:54:01.986Z,19.27
2023-02-11T07:56:31.504Z,17.87
2023-02-11T07:59:03.539Z,16.57
2023-02-11T08:01:32.726Z,17.53
2023-02-11T08:04:03.242Z,16.47
2023-02-11T08:06:34.358Z,15.80
2023-02-11T08:09:09.466Z,17.73
2023-02-11T08:11:38.202Z,16.93
2023-02-11T08:14:06.810Z,18.23
2023-02-11T08:16:38.874Z,15.50
2023-02-11T08:19:10.011Z,17.80
2023-02-11T08:21:39.400Z,20.10
2023-02-11T08:24:10.818Z,17.90
2023-02-11T08:26:39.785Z,17.27
2023-02-11T08:29:12.214Z,20.50
2023-02-11T08:31:43.174Z,18.07
2023-02-11T08:34:14.265Z,15.40
2023-02-11T08:36:44.961Z,14.43
2023-02-11T08:39:20.357Z,19.67
2023-02-11T08:41:51.737Z,16.77
2023-02-11T08:44:21.461Z,14.93
2023-02-11T08:46:50.557Z,15.50
2023-02-11T08:49:19.613Z,14.87
2023-02-11T08:51:48.937Z,12.20
2023-02-11T08:54:19.457Z,16.33
2023-02-11T08:56:52.452Z,14.80
2023-02-11T08:59:21.077Z,14.73
2023-02-11T09:01:49.830Z,16.53
2023-02-11T09:04:18.517Z,15.57
2023-02-11T09:06:47.767Z,13.47
2023-02-11T09:09:18.324Z,16.27
2023-02-11T09:11:48.240Z,15.77
2023-02-11T09:14:21.319Z,13.27
2023-02-11T09:16:50.900Z,16.30
2023-02-11T09:19:20.716Z,13.10
2023-02-11T09:21:49.340Z,15.73
2023-02-11T09:24:19.623Z,13.97
2023-02-11T09:26:49.649Z,13.57
2023-02-11T09:29:18.433Z,13.33
2023-02-11T09:31:47.117Z,15.23
2023-02-11T09:34:16.020Z,14.87
2023-02-11T09:36:44.712Z,14.70
2023-02-11T09:39:17.048Z,16.63
2023-02-11T09:42:27.037Z,15.90
2023-02-11T09:44:55.819Z,13.20
2023-02-11T09:47:30.331Z,15.27
2023-02-11T09:50:04.293Z,15.43
2023-02-11T09:52:40.787Z,15.13
2023-02-11T09:55:20.531Z,13.80
2023-02-11T09:57:50.765Z,15.83
2023-02-11T10:00:23.957Z,16.63
2023-02-11T10:03:22.995Z,16.23
2023-02-11T10:06:26.783Z,16.57
2023-02-11T10:09:08.654Z,14.07
2023-02-11T10:11:47.903Z,19.00
2023-02-11T10:14:43.408Z,14.63
2023-02-11T10:17:24.061Z,18.20
2023-02-11T10:20:16.737Z,15.37
2023-02-11T10:22:50.472Z,16.10
2023-02-11T10:25:24.595Z,15.87
2023-02-11T10:27:56.197Z,19.57
2023-02-11T10:30:33.602Z,16.97
2023-02-11T10:33:12.132Z,18.83
2023-02-11T10:35:42.538Z,20.47
2023-02-11T10:38:12.037Z,20.30
2023-02-11T10:40:41.715Z,17.30
2023-02-11T10:43:14.923Z,19.63
2023-02-11T10:45:48.938Z,17.47
2023-02-11T10:48:42.387Z,16.50
2023-02-11T10:51:20.503Z,18.90
2023-02-11T10:53:51.475Z,18.50
2023-02-11T10:56:28.291Z,23.00
2023-02-11T10:59:01.969Z,17.87
2023-02-11T11:01:48.647Z,19.43
2023-02-11T11:04:37.003Z,20.40
2023-02-11T11:07:17.711Z,19.67
2023-02-11T11:09:51.304Z,20.27
2023-02-11T11:12:36.641Z,19.17
2023-02-11T11:15:19.993Z,19.43
2023-02-11T11:17:50.592Z,20.10
2023-02-11T11:20:28.564Z,20.37
2023-02-11T11:23:17.251Z,18.60
2023-02-11T11:25:59.235Z,19.30
2023-02-11T11:28:30.668Z,19.80
2023-02-11T11:31:01.158Z,21.40
2023-02-11T11:33:35.867Z,19.77
2023-02-11T11:36:09.477Z,22.57
2023-02-11T11:38:45.172Z,23.67
2023-02-11T11:41:32.483Z,21.47
2023-02-11T11:44:22.108Z,18.47
2023-02-11T11:47:08.717Z,19.30
2023-02-11T11:49:45.325Z,21.33
2023-02-11T11:52:34.464Z,20.43
2023-02-11T11:55:14.519Z,19.60
2023-02-11T11:57:43.336Z,19.80
2023-02-11T12:00:18.982Z,18.73
2023-02-11T12:03:24.158Z,20.73
2023-02-11T12:06:11.031Z,18.80
2023-02-11T12:08:53.478Z,19.83
2023-02-11T12:11:28.735Z,17.73
2023-02-11T12:14:15.771Z,19.43
2023-02-11T12:16:56.235Z,18.90
2023-02-11T12:19:52.410Z,30.37
2023-02-11T12:22:38.483Z,19.60
2023-02-11T12:25:28.848Z,18.07
2023-02-11T12:28:19.324Z,19.53
2023-02-11T12:31:06.635Z,20.27
2023-02-11T12:33:54.811Z,20.63
2023-02-11T12:36:40.083Z,18.37
2023-02-11T12:39:22.970Z,17.10
2023-02-11T12:42:30.901Z,21.63
2023-02-11T12:45:18.143Z,17.07
2023-02-11T12:48:02.600Z,18.67
2023-02-11T12:50:43.547Z,18.10
2023-02-11T12:53:34.884Z,17.43
2023-02-11T12:56:13.561Z,21.10
2023-02-11T12:58:45.735Z,20.43
2023-02-11T13:01:21.431Z,19.87
2023-02-11T13:03:55.570Z,19.73
2023-02-11T13:06:30.305Z,18.70
2023-02-11T13:09:03.660Z,19.33
2023-02-11T13:11:40.332Z,19.53
2023-02-11T13:14:17.564Z,18.30
2023-02-11T13:16:49.716Z,19.67
2023-02-11T13:19:27.502Z,18.87
2023-02-11T13:22:10.412Z,20.63
2023-02-11T13:24:45.414Z,19.63
2023-02-11T13:27:31.765Z,19.50
2023-02-11T13:30:34.210Z,17.23
2023-02-11T13:33:33.005Z,18.03
2023-02-11T13:36:26.378Z,19.33
2023-02-11T13:39:07.999Z,22.50
2023-02-11T13:41:41.077Z,23.37
2023-02-11T13:44:25.814Z,23.77
2023-02-11T13:47:03.386Z,20.53
2023-02-11T13:49:36.784Z,23.40
2023-02-11T13:52:23.674Z,21.63
2023-02-11T13:54:55.230Z,23.87
2023-02-11T13:57:38.266Z,24.50
2023-02-11T14:00:48.580Z,19.83
2023-02-11T14:03:54.635Z,18.53
2023-02-11T14:07:01.883Z,19.10
2023-02-11T14:09:42.570Z,20.57
2023-02-11T14:12:34.071Z,21.03
2023-02-11T14:15:26.704Z,21.03
2023-02-11T14:17:56.775Z,18.63
2023-02-11T14:20:44.111Z,19.40
2023-02-11T14:23:28.574Z,21.87
2023-02-11T14:26:24.677Z,19.83
2023-02-11T14:29:01.582Z,20.83
2023-02-11T14:31:37.526Z,18.63
2023-02-11T14:34:34.197Z,23.07
2023-02-11T14:37:28.502Z,18.00
2023-02-11T14:40:07.170Z,20.17
2023-02-11T14:42:37.986Z,18.07
2023-02-11T14:45:10.960Z,21.30
2023-02-11T14:47:45.418Z,19.07
2023-02-11T14:50:24.048Z,19.63
2023-02-11T14:52:53.475Z,20.17
2023-02-11T14:55:33.229Z,19.57
2023-02-11T14:58:15.299Z,19.93
2023-02-11T15:00:58.551Z,19.73
2023-02-11T15:03:34.611Z,22.33
2023-02-11T15:06:08.738Z,20.90
2023-02-11T15:08:39.446Z,21.10
2023-02-11T15:11:14.324Z,21.37
2023-02-11T15:13:47.492Z,31.43
2023-02-11T15:16:19.830Z,33.70
2023-02-11T15:18:51.838Z,26.50
2023-02-11T15:21:29.879Z,26.23
2023-02-11T15:24:01.303Z,21.23
2023-02-11T15:26:31.287Z,21.60
2023-02-11T15:28:59.997Z,20.10
2023-02-11T15:31:29.841Z,21.80
2023-02-11T15:34:09.411Z,19.83
2023-02-11T15:36:39.959Z,33.50
2023-02-11T15:39:31.598Z,33.17
2023-02-11T15:42:23.084Z,28.73
2023-02-11T15:45:10.275Z,25.83
2023-02-11T15:47:40.113Z,20.43
2023-02-11T15:50:18.011Z,21.93
2023-02-11T15:52:49.586Z,18.43
2023-02-11T15:55:19.584Z,19.37
2023-02-11T15:57:53.762Z,19.93
2023-02-11T16:00:25.988Z,19.23
2023-02-11T16:02:55.159Z,20.57
2023-02-11T16:05:31.852Z,20.77
2023-02-11T16:08:13.392Z,19.07
2023-02-11T16:10:55.211Z,17.97
2023-02-11T16:13:25.530Z,18.37
2023-02-11T16:15:58.105Z,20.43
2023-02-11T16:18:38.989Z,22.80
2023-02-11T16:21:16.955Z,19.70
2023-02-11T16:23:52.886Z,25.57
2023-02-11T16:26:30.678Z,24.77
2023-02-11T16:29:12.838Z,22.23
2023-02-11T16:31:44.506Z,21.40
2023-02-11T16:34:17.608Z,20.37
2023-02-11T16:36:47.510Z,20.57
2023-02-11T16:39:18.676Z,20.10
2023-02-11T16:41:47.288Z,18.60
2023-02-11T16:44:15.939Z,17.30
2023-02-11T16:46:45.034Z,19.67
2023-02-11T16:49:21.892Z,21.13
2023-02-11T16:51:56.565Z,21.63
2023-02-11T16:54:26.583Z,20.43
2023-02-11T16:56:55.789Z,17.23
2023-02-11T16:59:24.587Z,18.20
2023-02-11T17:01:55.128Z,19.27
2023-02-11T17:04:28.877Z,21.10
2023-02-11T17:06:58.614Z,20.03
2023-02-11T17:09:31.012Z,19.57
2023-02-11T17:12:00.281Z,18.93
2023-02-11T17:14:29.004Z,19.77
2023-02-11T17:16:58.581Z,18.97
2023-02-11T17:19:27.211Z,18.23
2023-02-11T17:21:55.832Z,18.50
2023-02-11T17:24:24.888Z,19.23
2023-02-11T17:26:55.014Z,21.10
2023-02-11T17:29:25.506Z,25.37
2023-02-11T17:31:54.810Z,22.73
2023-02-11T17:34:24.885Z,29.37
2023-02-11T17:36:53.587Z,23.67
2023-02-11T17:39:22.297Z,28.00
2023-02-11T17:41:50.961Z,24.70
2023-02-11T17:44:20.978Z,28.47
2023-02-11T17:46:49.598Z,30.50
2023-02-11T17:49:19.382Z,30.47
2023-02-11T17:51:48.399Z,29.47
2023-02-11T17:54:20.195Z,28.77
2023-02-11T17:56:50.791Z,29.43
2023-02-11T17:59:21.836Z,29.70
2023-02-11T18:01:50.491Z,29.93
2023-02-11T18:04:21.293Z,25.17
2023-02-11T18:06:50.331Z,28.03
2023-02-11T18:09:18.966Z,29.90
2023-02-11T18:11:48.524Z,24.27
2023-02-11T18:14:17.485Z,22.40
2023-02-11T18:16:51.142Z,23.80
2023-02-11T18:19:20.524Z,27.77
2023-02-11T18:21:50.500Z,33.93
2023-02-11T18:24:19.886Z,32.17
2023-02-11T18:26:48.594Z,30.40
2023-02-11T18:29:17.159Z,30.47
2023-02-11T18:31:47.185Z,27.60
2023-02-11T18:34:15.976Z,27.83
2023-02-11T18:36:44.795Z,32.00
2023-02-11T18:39:13.403Z,31.63
2023-02-11T18:41:43.564Z,30.23
2023-02-11T18:44:14.306Z,32.73
2023-02-11T18:46:43.006Z,26.37
2023-02-11T18:49:13.458Z,27.40
2023-02-11T18:51:42.182Z,30.43
2023-02-11T18:54:11.422Z,31.70
2023-02-11T18:56:40.181Z,28.97
2023-02-11T18:59:08.787Z,31.70
2023-02-11T19:01:40.027Z,28.07
2023-02-11T19:04:08.814Z,29.17
2023-02-11T19:06:39.975Z,30.33
2023-02-11T19:09:12.188Z,31.97
2023-02-11T19:11:51.089Z,29.17
2023-02-11T19:14:23.658Z,22.43
2023-02-11T19:16:54.491Z,25.03
2023-02-11T19:19:24.888Z,20.77
2023-02-11T19:21:55.766Z,21.23
2023-02-11T19:24:25.615Z,21.87
2023-02-11T19:26:57.797Z,25.07
2023-02-11T19:29:26.925Z,25.87
2023-02-11T19:31:56.460Z,26.17
2023-02-11T19:34:25.971Z,29.27
2023-02-11T19:36:56.822Z,26.70
2023-02-11T19:39:26.018Z,25.63
2023-02-11T19:41:55.126Z,27.63
2023-02-11T19:44:23.753Z,27.57
2023-02-11T19:46:53.392Z,31.47
2023-02-11T19:49:25.986Z,31.53
2023-02-11T19:51:58.518Z,31.27
2023-02-11T19:54:29.105Z,30.13
2023-02-11T19:56:58.774Z,32.57
2023-02-11T19:59:27.661Z,28.20
2023-02-11T20:01:57.663Z,28.80
2023-02-11T20:04:26.492Z,27.63
2023-02-11T20:06:56.432Z,25.37
2023-02-11T20:09:27.066Z,30.90
2023-02-11T20:11:55.834Z,27.43
2023-02-11T20:14:27.505Z,24.60
2023-02-11T20:17:00.744Z,25.60
2023-02-11T20:19:30.696Z,26.77
2023-02-11T20:22:00.759Z,26.93
2023-02-11T20:24:29.512Z,24.00
2023-02-11T20:26:58.160Z,29.47
2023-02-11T20:29:27.384Z,24.13
2023-02-11T20:31:56.142Z,21.90
2023-02-11T20:34:25.392Z,26.57
2023-02-11T20:36:54.911Z,27.60
2023-02-11T20:39:26.816Z,25.67
2023-02-11T20:41:56.615Z,28.30
2023-02-11T20:44:25.640Z,28.10
2023-02-11T20:46:54.993Z,28.80
2023-02-11T20:49:28.324Z,30.10
2023-02-11T20:51:58.492Z,30.17
2023-02-11T20:54:28.632Z,28.63
2023-02-11T20:56:58.280Z,26.63
2023-02-11T20:59:27.287Z,26.60
2023-02-11T21:01:57.823Z,26.10
2023-02-11T21:04:28.687Z,24.67
2023-02-11T21:07:00.121Z,28.83
2023-02-11T21:09:33.247Z,32.00
2023-02-11T21:12:02.919Z,29.93
2023-02-11T21:14:32.055Z,34.20
2023-02-11T21:17:00.703Z,36.87
2023-02-11T21:19:29.416Z,40.27
2023-02-11T21:22:00.695Z,44.97
2023-02-11T21:24:31.857Z,41.57
2023-02-11T21:27:00.744Z,39.73
2023-02-11T21:29:29.582Z,40.30
2023-02-11T21:31:58.228Z,34.10
2023-02-11T21:34:26.879Z,39.23
2023-02-11T21:36:55.476Z,36.67
2023-02-11T21:39:24.154Z,31.13
2023-02-11T21:41:55.982Z,26.47
2023-02-11T21:44:24.646Z,29.73
2023-02-11T21:46:53.341Z,24.97
2023-02-11T21:49:22.026Z,27.10
2023-02-11T21:51:50.595Z,23.57
2023-02-11T21:54:20.212Z,28.67
2023-02-11T21:56:52.944Z,27.37
2023-02-11T21:59:21.561Z,24.30
2023-02-11T22:01:50.330Z,25.90
2023-02-11T22:04:18.982Z,24.67
2023-02-11T22:06:47.679Z,21.80
2023-02-11T22:09:16.308Z,25.30
2023-02-11T22:11:44.978Z,27.70
2023-02-11T22:14:14.876Z,25.43
2023-02-11T22:16:46.475Z,26.73
2023-02-11T22:19:15.807Z,27.43
2023-02-11T22:21:44.552Z,23.83
2023-02-11T22:24:13.415Z,26.80
2023-02-11T22:26:42.058Z,27.17
2023-02-11T22:29:10.872Z,28.80
2023-02-11T22:31:40.923Z,27.43
2023-02-11T22:34:09.869Z,29.23
2023-02-11T22:36:42.142Z,29.70
2023-02-11T22:39:14.653Z,28.67
2023-02-11T22:41:44.410Z,29.83
2023-02-11T22:44:13.496Z,29.50
2023-02-11T22:46:43.747Z,28.60
2023-02-11T22:49:15.415Z,29.67
2023-02-11T22:51:44.371Z,29.53
2023-02-11T22:54:15.776Z,28.70
2023-02-11T22:56:45.204Z,28.33
2023-02-11T22:59:15.780Z,29.50
2023-02-11T23:01:46.902Z,26.27
2023-02-11T23:04:19.271Z,27.80
2023-02-11T23:06:49.397Z,32.47
2023-02-11T23:09:18.455Z,28.80
2023-02-11T23:11:48.598Z,39.70
2023-02-11T23:14:17.274Z,45.53
2023-02-11T23:16:47.338Z,40.90
2023-02-11T23:19:17.076Z,37.10
2023-02-11T23:21:45.690Z,37.10
2023-02-11T23:24:16.214Z,35.50
2023-02-11T23:26:45.563Z,35.17
2023-02-11T23:29:14.903Z,33.77
2023-02-11T23:31:46.741Z,32.90
2023-02-11T23:34:20.358Z,31.87
2023-02-11T23:36:49.006Z,31.97
2023-02-11T23:39:17.989Z,27.80
2023-02-11T23:41:47.368Z,31.10
2023-02-11T23:44:16.070Z,27.70
2023-02-11T23:46:46.124Z,30.23
2023-02-11T23:49:15.607Z,27.03
2023-02-11T23:51:44.344Z,29.70
2023-02-11T23:54:15.188Z,28.67
2023-02-11T23:56:43.986Z,26.37
2023-02-11T23:59:12.772Z,28.33
